Latest Coastal Weather Observations for Swan Island

IDT60701

Issued at 2:52 pm EDT Tuesday 30 November 2021 (issued every 10 minutes, with the page automatically refreshed every 10 minutes)

About coastal observations | Map of coastal stations | Coastal observations for TAS | Marine services | Other Formats
Station Details ID: 092123 Name: SWAN ISLAND Lat: -40.73 Lon: 148.12 Height: 15.0 m
Data from the previous 72 hours. | See also: Recent months at Swan Island
Date/Time
EDT
Wind Sea
Height
m
Swell Vis
km
Cloud Weather Temp
°C
Press
MSL
hPa
Rain since
9am
mm
Dir  Spd
kts
Gust
kts
Height
m
Period
s
Dir
30/02:30pm ENE 12 14 - - - - - - - 18.7 1016.7 0.0
30/02:00pm E 9 11 - - - - - - - 19.2 1017.0 0.0
30/01:30pm E 9 11 - - - - - - - 18.7 1017.3 0.0
30/01:00pm E 10 11 - - - - - - - 19.2 1017.5 0.0
30/12:30pm E 10 11 - - - - - - - 19.2 1017.7 0.0
30/12:00pm ESE 10 11 - - - - - - - 19.4 1017.8 0.0
30/11:30am E 11 12 - - - - - - - 19.0 1018.0 0.0
30/11:00am ESE 8 11 - - - - - - - 18.7 1018.1 0.0
30/10:30am ESE 7 10 - - - - - - - 18.0 1018.1 0.0
30/10:00am ESE 6 8 - - - - - - - 16.4 1018.5 0.0
30/09:30am ESE 4 5 - - - - - - - 16.2 1018.7 0.0
30/09:00am E 6 8 - - - - - - - 15.8 1018.7 0.0
30/08:30am ENE 7 9 - - - - - - - 15.5 1018.6 0.0
30/08:00am E 7 9 - - - - - - - 15.3 1018.5 0.0
30/07:30am ESE 6 8 - - - - - - - 15.2 1018.4 0.0
30/07:00am E 6 8 - - - - - - - 15.2 1018.2 0.0
30/06:30am E 7 8 - - - - - - - 14.9 1018.1 0.0
30/06:00am E 7 8 - - - - - - - 14.6 1017.8 0.0
30/05:30am E 7 8 - - - - - - - 14.6 1017.7 0.0
30/05:00am ENE 8 10 - - - - - - - 14.6 1017.6 0.0
30/04:30am ENE 7 9 - - - - - - - 14.7 1017.5 0.0
30/04:00am ENE 6 8 - - - - - - - 14.5 1017.7 0.0
30/03:30am E 5 6 - - - - - - - 14.3 1017.8 0.0
30/03:00am E 6 8 - - - - - - - 14.3 1018.0 0.0
30/02:30am E 7 8 - - - - - - - 14.3 1018.2 0.0
30/02:00am E 7 9 - - - - - - - 14.4 1018.5 0.0
30/01:30am E 7 8 - - - - - - - 14.4 1018.7 0.0
30/01:00am E 7 8 - - - - - - - 14.3 1019.0 0.0
30/12:30am ENE 7 8 - - - - - - - 14.3 1019.1 0.0
30/12:00am E 5 6 - - - - - - - 14.2 1019.3 0.0
 
Date/Time
EDT
Wind Sea
Height
m
Swell Vis
km
Cloud Weather Temp
°C
Press
MSL
hPa
Rain since
9am
mm
Dir  Spd
kts
Gust
kts
Height
m
Period
s
Dir
29/11:30pm E 4 5 - - - - - - - 13.8 1019.3 0.0
29/11:00pm ENE 4 5 - - - - - - - 14.2 1019.4 0.0
29/10:30pm ENE 5 6 - - - - - - - 14.3 1019.4 0.0
29/10:00pm NE 6 7 - - - - - - - 14.3 1019.4 0.0
29/09:30pm NE 7 8 - - - - - - - 14.4 1019.2 0.0
29/09:00pm NE 9 11 - - - - - - - 14.6 1019.0 0.0
29/08:30pm NE 9 11 - - - - - - - 14.7 1018.8 0.0
29/08:00pm NE 11 13 - - - - - - - 15.0 1018.6 0.0
29/07:30pm NE 12 14 - - - - - - - 15.3 1018.5 0.0
29/07:00pm ENE 12 14 - - - - - - - 15.5 1018.6 0.0
29/06:30pm ENE 12 14 - - - - - - - 15.7 1018.5 0.0
29/06:00pm ENE 12 14 - - - - - - - 16.1 1018.6 0.0
29/05:30pm ENE 12 14 - - - - - - - 16.5 1018.6 0.0
29/05:00pm ENE 13 15 - - - - - - - 16.6 1018.9 0.0
29/04:30pm ENE 13 15 - - - - - - - 17.0 1019.0 0.0
29/04:00pm ENE 13 15 - - - - - - - 16.9 1019.1 0.0
29/03:30pm ENE 13 15 - - - - - - - 17.1 1019.3 0.0
29/03:00pm ENE 12 14 - - - - - - - 17.2 1019.7 0.0
29/02:30pm ENE 11 13 - - - - - - - 17.7 1019.9 0.0
29/02:00pm E 9 11 - - - - - - - 17.9 1020.2 0.0
29/01:30pm E 7 9 - - - - - - - 18.4 1020.5 0.0
29/01:00pm E 7 8 - - - - - - - 18.8 1020.8 0.0
29/12:30pm E 6 7 - - - - - - - 18.0 1021.1 0.0
29/12:00pm ENE 5 7 - - - - - - - 17.7 1021.2 0.0
29/11:30am E 6 7 - - - - - - - 18.3 1021.3 0.0
29/11:00am ENE 4 6 - - - - - - - 17.6 1021.4 0.0
29/10:30am ENE 5 6 - - - - - - - 17.3 1021.6 0.0
29/10:00am ENE 4 5 - - - - - - - 17.5 1021.7 0.0
29/09:30am NE 5 7 - - - - - - - 17.9 1021.9 0.0
29/09:00am N 4 5 - - - - - - - 16.1 1022.0 0.0
29/08:30am NNE 4 5 - - - - - - - 16.5 1021.9 0.0
29/08:00am NNE 5 8 - - - - - - - 14.9 1021.8 0.0
29/07:30am NNE 5 7 - - - - - - - 14.4 1021.7 0.0
29/07:00am NNE 6 9 - - - - - - - 13.7 1021.5 0.0
29/06:30am NNE 4 7 - - - - - - - 13.2 1021.5 0.0
29/06:00am NNE 4 7 - - - - - - - 12.7 1021.4 0.0
29/05:30am CALM 0 1 - - - - - - - 12.2 1021.6 0.0
29/05:00am NNE 2 3 - - - - - - - 11.9 1021.6 0.0
29/04:30am NNE 3 4 - - - - - - - 12.4 1021.8 0.0
29/04:00am NNE 4 5 - - - - - - - 12.4 1021.9 0.0
29/03:30am NNE 4 5 - - - - - - - 12.7 1022.0 0.0
29/03:00am NNE 5 7 - - - - - - - 12.8 1022.2 0.0
29/02:30am NNE 6 8 - - - - - - - 12.8 1022.4 0.0
29/02:00am NNE 6 8 - - - - - - - 12.9 1022.7 0.0
29/01:30am NNE 6 9 - - - - - - - 13.0 1022.9 0.0
29/01:00am NNE 7 9 - - - - - - - 13.1 1023.1 0.0
29/12:30am NNE 6 9 - - - - - - - 13.2 1023.4 0.0
29/12:00am NNE 6 8 - - - - - - - 13.1 1023.8 0.0
 
Date/Time
EDT
Wind Sea
Height
m
Swell Vis
km
Cloud Weather Temp
°C
Press
MSL
hPa
Rain since
9am
mm
Dir  Spd
kts
Gust
kts
Height
m
Period
s
Dir
28/11:30pm NNE 7 10 - - - - - - - 13.4 1024.0 0.0
28/11:00pm NNE 7 10 - - - - - - - 13.4 1024.2 0.0
28/10:30pm NNE 9 11 - - - - - - - 13.7 1024.1 0.0
28/10:00pm NNE 9 12 - - - - - - - 13.7 1024.2 0.0
28/09:30pm NNE 10 13 - - - - - - - 13.8 1023.8 0.0
28/09:00pm NNE 10 13 - - - - - - - 14.0 1023.6 0.0
28/08:30pm NE 10 12 - - - - - - - 14.2 1023.4 0.0
28/08:00pm NE 11 12 - - - - - - - 14.3 1023.3 0.0
28/07:30pm NE 10 12 - - - - - - - 14.6 1023.2 0.0
28/07:00pm NE 9 11 - - - - - - - 14.8 1023.2 0.0
28/06:30pm NE 8 9 - - - - - - - 15.2 1023.0 0.0
28/06:00pm NE 8 10 - - - - - - - 15.4 1023.1 0.0
28/05:30pm NE 8 10 - - - - - - - 15.8 1023.1 0.0
28/05:00pm ENE 7 8 - - - - - - - 16.2 1023.2 0.0
28/04:30pm ENE 8 9 - - - - - - - 16.6 1023.5 0.0
28/04:00pm ENE 9 10 - - - - - - - 16.6 1023.8 0.0
28/03:30pm ENE 9 11 - - - - - - - 17.1 1024.1 0.0
28/03:00pm ENE 9 12 - - - - - - - 16.9 1024.5 0.0
28/02:30pm ENE 10 12 - - - - - - - 17.1 1025.0 0.0
28/02:00pm E 8 10 - - - - - - - 17.9 1025.2 0.0
28/01:30pm E 7 9 - - - - - - - 18.1 1025.6 0.0
28/01:00pm E 6 7 - - - - - - - 17.3 1026.0 0.0
28/12:30pm ESE 5 6 - - - - - - - 17.7 1026.3 0.0
28/12:00pm ESE 5 6 - - - - - - - 17.5 1026.6 0.0
28/11:30am ESE 4 6 - - - - - - - 17.4 1026.9 0.0
28/11:00am ESE 5 9 - - - - - - - 16.6 1027.2 0.0
28/10:30am ESE 5 7 - - - - - - - 16.4 1027.4 0.0
28/10:00am ESE 6 9 - - - - - - - 15.6 1027.5 0.0
28/09:30am SSE 6 8 - - - - - - - 15.7 1027.6 0.0
28/09:00am S 6 9 - - - - - - - 14.3 1027.6 0.0
28/08:30am S 6 8 - - - - - - - 13.0 1027.6 0.0
28/08:00am S 5 8 - - - - - - - 12.4 1027.1 0.0
28/07:30am S 6 9 - - - - - - - 11.4 1026.9 0.0
28/07:00am SSW 6 8 - - - - - - - 10.5 1027.0 0.0
28/06:30am S 6 7 - - - - - - - 10.0 1026.7 0.0
28/06:00am S 6 8 - - - - - - - 9.7 1026.6 0.0
28/05:30am S 6 8 - - - - - - - 9.8 1026.2 0.0
28/05:00am S 6 9 - - - - - - - 9.8 1026.1 0.0
28/04:30am S 6 9 - - - - - - - 10.1 1026.2 0.0
28/04:00am S 5 7 - - - - - - - 10.2 1026.3 0.0
28/03:30am S 5 7 - - - - - - - 10.4 1026.5 0.0
28/03:00am S 4 6 - - - - - - - 10.5 1026.7 0.0
28/02:30am S 5 7 - - - - - - - 10.9 1027.0 0.0
28/02:00am SE 5 6 - - - - - - - 11.7 1027.3 0.0
28/01:30am ESE 5 7 - - - - - - - 12.0 1027.3 0.0
28/01:00am ESE 6 9 - - - - - - - 12.1 1027.4 0.0
28/12:30am ESE 6 9 - - - - - - - 12.2 1027.6 0.0
28/12:00am ESE 8 10 - - - - - - - 12.4 1027.8 0.0
 
Date/Time
EDT
Wind Sea
Height
m
Swell Vis
km
Cloud Weather Temp
°C
Press
MSL
hPa
Rain since
9am
mm
Dir  Spd
kts
Gust
kts
Height
m
Period
s
Dir
27/11:30pm E 9 11 - - - - - - - 12.6 1028.0 0.0
27/11:00pm ESE 9 12 - - - - - - - 12.7 1027.9 0.0
27/10:30pm E 9 10 - - - - - - - 12.8 1027.9 0.0
27/10:00pm ESE 9 13 - - - - - - - 12.9 1027.9 0.0
27/09:30pm ESE 11 13 - - - - - - - 13.0 1027.8 0.0
27/09:00pm ESE 11 14 - - - - - - - 13.1 1027.5 0.0
27/08:30pm ESE 12 15 - - - - - - - 13.4 1027.4 0.0
27/08:00pm ESE 12 15 - - - - - - - 13.5 1027.2 0.0
27/07:30pm ESE 13 16 - - - - - - - 13.6 1027.0 0.0
27/07:00pm ESE 13 17 - - - - - - - 14.0 1026.8 0.0
27/06:30pm ESE 13 17 - - - - - - - 14.3 1026.5 0.0
27/06:00pm ESE 14 17 - - - - - - - 14.7 1026.3 0.0
27/05:30pm ESE 15 18 - - - - - - - 15.1 1026.2 0.0
27/05:00pm ESE 14 18 - - - - - - - 15.3 1026.5 0.0
27/04:30pm ESE 14 17 - - - - - - - 15.6 1026.4 0.0
27/04:00pm ESE 13 17 - - - - - - - 16.1 1026.8 0.0
27/03:30pm E 13 16 - - - - - - - 16.4 1026.9 0.0
27/03:00pm ESE 13 16 - - - - - - - 16.6 1027.1 0.0

Other formats

Comma delimited format used in spreadsheet applications
http://www.bom.gov.au/fwo/IDT60701/IDT60701.95985.axf

JavaScript Object Notation format (JSON) in row-major order
http://www.bom.gov.au/fwo/IDT60701/IDT60701.95985.json

Data quality

Most of these data are generated automatically and are frequently updated. Quality checks on data are not normally performed. It is possible for incorrect values to appear. Refer to information at About Latest Weather Observations and please check the disclaimer before using these data.